Observations de surface / UK / EGDM

Québec | Canada | États-Unis | France | UK | Europe | Ailleurs

Affichage: Infos & localisation pour EGDM | Aide pour décoder les METARs

EGDM BOSCOMBE DOWN -- UK
Raw surface observations for station EGDM
EGDM 211650Z 06005KT 9999 BKN033 01/M04 Q1025 BLU=
EGDM 211550Z 11007KT 9999 SCT032 00/M04 Q1024 BLU NOSIG=
EGDM 211450Z 10006KT 9999 SCT033 02/M04 Q1025 BLU NOSIG=
EGDM 211350Z 10009KT 9999 FEW030 03/M04 Q1025 BLU NOSIG=
EGDM 211250Z 10009KT 9999 FEW025 03/M03 Q1025 BLU NOSIG=
EGDM 211150Z 09009KT 9999 FEW020 02/M03 Q1026 BLU NOSIG=
EGDM 211050Z 09007KT CAVOK 01/M03 Q1027 BLU NOSIG=
EGDM 210950Z 07006KT CAVOK M01/M03 Q1027 BLU NOSIG=
EGDM 210850Z 07001KT CAVOK M02/M04 Q1027 BLU NOSIG=
EGDM 210750Z 03003KT CAVOK M03/M04 Q1027 BLU=
EGDM 210650Z AUTO 05006KT 9999 NCD M01/M04 Q1027=
EGDM 210550Z AUTO 06007KT 9999 NCD M01/M04 Q1027=
EGDM 210450Z AUTO 06008KT 9999 NCD M01/M03 Q1028=
EGDM 210350Z AUTO 06007KT 9999 NCD M01/M03 Q1028=
EGDM 210250Z AUTO 06006KT 9999 NCD M01/M03 Q1028=
EGDM 210150Z AUTO 06006KT 9999 NCD M01/M03 Q1029=
EGDM 210050Z AUTO 07006KT 9999 NCD M01/M03 Q1029=
EGDM 202350Z AUTO 07008KT 9999 NCD M01/M03 Q1029=
EGDM 202250Z AUTO 07010KT 9999 NCD M01/M03 Q1029=
EGDM 202150Z AUTO 08010KT 9999 NCD M00/M03 Q1029=
EGDM 202050Z AUTO 07009KT 9999 NCD 01/M04 Q1029=
EGDM 201950Z AUTO 06010KT 9999 NCD 02/M04 Q1030=
EGDM 201850Z AUTO 06009KT 9999 NCD 02/M03 Q1030=
EGDM 201750Z AUTO 06007KT 9999 NCD 03/M04 Q1030=